KMANKBKE

Guest
Details From KMAN - NAMPA MUNI
To KBKE - BAKER CITY MUNI
Flight Number -
Tags decoded
Created
Modified
Stats Distance 94 nm / 173 km
Max Altitude 0 ft / 0 m
Waypoints 2
Social Downloads 0
Likes 0
Share VATSIM

Download

Looking for another format? Having issues loading an existing format? Contact us
Advertisement - Login to hide

Notes

Requested: KMAN KBKE

Route

KMAN KBKE

ID Type Via Altitude Latitude Longitude Leg Dist Tot Dist Heading (true) Name
O KMAN APT - 0 ft / 0 m 43.58134˚ -116.52306˚ - 0 nm - NAMPA MUNI
O KBKE APT - 0 ft / 0 m 44.83732˚ -117.80912˚ 93 nm 93 nm 324° / 323° BAKER CITY MUNI

Altitude Profile

Advertisement - Login to hide

KMAN

Details ICAO KMAN
Name NAMPA MUNI
Region United States
Timezone America/Boise (UTC-6.0)
Stats Elevation 2,537 ft / 773 m (AMSL)
Location 43.581342° -116.523062°
Runways 1
Magnetic Variation 13.399° E

METAR

KMAN 250715Z AUTO 18005G10KT 10SM CLR 20/10 A2992 RMK A01

Decode

TAF

Not found

Departure Runways

ID Width Length Bearing (true) Bearing (mag) Surface Threshold Offset Overrun Length
11 75 ft / 23 m 4,994 ft / 1,522 m 125.74° 112.34° Asphalt 0 ft / 0 m 0 ft / 0 m
29 75 ft / 23 m 4,994 ft / 1,522 m 305.76° 292.36° Asphalt 0 ft / 0 m 0 ft / 0 m

KBKE

Details ICAO KBKE
Name BAKER CITY MUNI
Region United States
Timezone America/Los_Angeles (UTC-7.0)
Stats Elevation 3,373 ft / 1,028 m (AMSL)
Location 44.837325° -117.809116°
Runways 3
Magnetic Variation 14.013° E

METAR

KBKE 250653Z AUTO 00000KT 10SM CLR 12/09 A3002 RMK AO2 SLP144 T01220094

Decode

TAF

TAF KBKE 250524Z 2506/2606 VRB05KT P6SM BKN100 FM251500 VRB05KT P6SM -SHRA VCTS OVC060CB FM251800 VRB05KT P6SM BKN100 FM260100 31011KT P6SM -SHRA OVC050 TEMPO 2601/2605 VRB20G30KT -TSRA OVC050CB FM260500 31011KT P6SM BKN100

Decode

Destination Runways

ID Width Length Bearing (true) Bearing (mag) Surface Threshold Offset Overrun Length
08 140 ft / 43 m 3,989 ft / 1,216 m 96.83° 82.82° Asphalt 140 ft / 43 m 0 ft / 0 m
13 100 ft / 30 m 5,092 ft / 1,552 m 141.62° 127.61° Asphalt 0 ft / 0 m 0 ft / 0 m
17 75 ft / 23 m 4,363 ft / 1,330 m 181.19° 167.18° Asphalt 0 ft / 0 m 0 ft / 0 m
26 140 ft / 43 m 3,989 ft / 1,216 m 276.84° 262.83° Asphalt 190 ft / 58 m 0 ft / 0 m
31 100 ft / 30 m 5,092 ft / 1,552 m 321.62° 307.61° Asphalt 0 ft / 0 m 0 ft / 0 m
35 75 ft / 23 m 4,363 ft / 1,330 m 1.19° 347.18° Asphalt 395 ft / 120 m 0 ft / 0 m